sensor_id;sensor_type;location;lat;lon;timestamp;P1;durP1;ratioP1;P2;durP2;ratioP2
78141;SDS011;67393;52.620;13.482;2023-11-21T00:01:58;32.42;;;13.05;;
78141;SDS011;67393;52.620;13.482;2023-11-21T00:04:24;38.15;;;14.95;;
78141;SDS011;67393;52.620;13.482;2023-11-21T00:06:51;39.75;;;13.88;;
78141;SDS011;67393;52.620;13.482;2023-11-21T00:09:17;45.78;;;14.43;;
78141;SDS011;67393;52.620;13.482;2023-11-21T00:11:44;40.90;;;14.52;;
78141;SDS011;67393;52.620;13.482;2023-11-21T00:14:11;53.35;;;15.57;;
78141;SDS011;67393;52.620;13.482;2023-11-21T00:16:37;41.40;;;14.13;;
78141;SDS011;67393;52.620;13.482;2023-11-21T00:19:04;52.60;;;16.52;;
78141;SDS011;67393;52.620;13.482;2023-11-21T00:21:30;47.55;;;15.20;;
78141;SDS011;67393;52.620;13.482;2023-11-21T00:23:56;37.80;;;14.20;;
78141;SDS011;67393;52.620;13.482;2023-11-21T00:26:23;59.38;;;16.27;;
78141;SDS011;67393;52.620;13.482;2023-11-21T00:28:49;53.67;;;16.67;;
78141;SDS011;67393;52.620;13.482;2023-11-21T00:31:16;55.88;;;18.35;;
78141;SDS011;67393;52.620;13.482;2023-11-21T00:33:43;58.90;;;16.65;;
78141;SDS011;67393;52.620;13.482;2023-11-21T00:36:09;61.50;;;18.08;;
78141;SDS011;67393;52.620;13.482;2023-11-21T00:38:36;56.47;;;18.70;;
78141;SDS011;67393;52.620;13.482;2023-11-21T00:41:02;62.97;;;18.77;;
78141;SDS011;67393;52.620;13.482;2023-11-21T00:43:29;65.03;;;21.23;;
78141;SDS011;67393;52.620;13.482;2023-11-21T00:45:55;69.07;;;21.15;;
78141;SDS011;67393;52.620;13.482;2023-11-21T00:48:22;80.10;;;21.23;;
78141;SDS011;67393;52.620;13.482;2023-11-21T00:50:48;73.72;;;21.80;;
78141;SDS011;67393;52.620;13.482;2023-11-21T00:53:15;72.07;;;23.55;;
78141;SDS011;67393;52.620;13.482;2023-11-21T00:55:41;76.15;;;20.42;;
78141;SDS011;67393;52.620;13.482;2023-11-21T00:58:08;80.35;;;22.05;;
78141;SDS011;67393;52.620;13.482;2023-11-21T01:00:34;78.25;;;21.58;;
78141;SDS011;67393;52.620;13.482;2023-11-21T01:03:01;80.38;;;22.50;;
78141;SDS011;67393;52.620;13.482;2023-11-21T01:05:27;71.55;;;20.08;;
78141;SDS011;67393;52.620;13.482;2023-11-21T01:07:54;58.88;;;16.92;;
78141;SDS011;67393;52.620;13.482;2023-11-21T01:10:20;61.78;;;18.80;;
78141;SDS011;67393;52.620;13.482;2023-11-21T01:12:46;56.53;;;17.50;;
78141;SDS011;67393;52.620;13.482;2023-11-21T01:15:13;55.97;;;16.85;;
78141;SDS011;67393;52.620;13.482;2023-11-21T01:17:39;60.95;;;16.95;;
78141;SDS011;67393;52.620;13.482;2023-11-21T01:20:06;73.25;;;17.80;;
78141;SDS011;67393;52.620;13.482;2023-11-21T01:22:33;54.65;;;16.27;;
78141;SDS011;67393;52.620;13.482;2023-11-21T01:24:59;57.75;;;13.10;;
78141;SDS011;67393;52.620;13.482;2023-11-21T01:27:26;52.45;;;15.18;;
78141;SDS011;67393;52.620;13.482;2023-11-21T01:29:52;52.95;;;14.90;;
78141;SDS011;67393;52.620;13.482;2023-11-21T01:32:19;38.88;;;12.52;;
78141;SDS011;67393;52.620;13.482;2023-11-21T01:34:45;43.83;;;13.30;;
78141;SDS011;67393;52.620;13.482;2023-11-21T01:37:11;43.40;;;11.75;;
78141;SDS011;67393;52.620;13.482;2023-11-21T01:39:38;36.53;;;11.98;;
78141;SDS011;67393;52.620;13.482;2023-11-21T01:42:05;40.20;;;11.95;;
78141;SDS011;67393;52.620;13.482;2023-11-21T01:44:31;32.95;;;10.15;;
78141;SDS011;67393;52.620;13.482;2023-11-21T01:46:58;37.97;;;12.07;;
78141;SDS011;67393;52.620;13.482;2023-11-21T01:49:24;45.58;;;12.43;;
78141;SDS011;67393;52.620;13.482;2023-11-21T01:51:51;31.20;;;10.52;;
78141;SDS011;67393;52.620;13.482;2023-11-21T01:54:17;33.63;;;10.15;;
78141;SDS011;67393;52.620;13.482;2023-11-21T01:56:46;35.20;;;10.32;;
78141;SDS011;67393;52.620;13.482;2023-11-21T01:59:14;30.52;;;9.20;;
78141;SDS011;67393;52.620;13.482;2023-11-21T02:01:46;33.90;;;9.55;;
78141;SDS011;67393;52.620;13.482;2023-11-21T02:04:13;27.70;;;9.27;;
78141;SDS011;67393;52.620;13.482;2023-11-21T02:06:40;23.88;;;9.48;;
78141;SDS011;67393;52.620;13.482;2023-11-21T02:09:06;25.67;;;9.63;;
78141;SDS011;67393;52.620;13.482;2023-11-21T02:11:33;24.55;;;9.32;;
78141;SDS011;67393;52.620;13.482;2023-11-21T02:13:59;21.80;;;9.13;;
78141;SDS011;67393;52.620;13.482;2023-11-21T02:16:25;24.23;;;9.10;;
78141;SDS011;67393;52.620;13.482;2023-11-21T02:18:52;21.30;;;9.27;;
78141;SDS011;67393;52.620;13.482;2023-11-21T02:21:19;26.63;;;9.32;;
78141;SDS011;67393;52.620;13.482;2023-11-21T02:23:45;20.25;;;9.27;;
78141;SDS011;67393;52.620;13.482;2023-11-21T02:26:12;24.30;;;8.80;;
78141;SDS011;67393;52.620;13.482;2023-11-21T02:28:39;32.17;;;11.27;;
78141;SDS011;67393;52.620;13.482;2023-11-21T02:31:06;25.42;;;10.23;;
78141;SDS011;67393;52.620;13.482;2023-11-21T02:33:32;23.35;;;9.45;;
78141;SDS011;67393;52.620;13.482;2023-11-21T02:36:02;23.92;;;10.93;;
78141;SDS011;67393;52.620;13.482;2023-11-21T02:38:29;24.45;;;10.40;;
78141;SDS011;67393;52.620;13.482;2023-11-21T02:40:57;22.85;;;9.65;;
78141;SDS011;67393;52.620;13.482;2023-11-21T02:43:24;22.90;;;10.38;;
78141;SDS011;67393;52.620;13.482;2023-11-21T02:45:50;28.30;;;9.40;;
78141;SDS011;67393;52.620;13.482;2023-11-21T02:48:17;21.00;;;9.88;;
78141;SDS011;67393;52.620;13.482;2023-11-21T02:50:43;26.55;;;9.98;;
78141;SDS011;67393;52.620;13.482;2023-11-21T02:53:09;23.20;;;8.88;;
78141;SDS011;67393;52.620;13.482;2023-11-21T02:55:36;22.80;;;9.20;;
78141;SDS011;67393;52.620;13.482;2023-11-21T02:58:03;20.17;;;9.45;;
78141;SDS011;67393;52.620;13.482;2023-11-21T03:00:29;19.30;;;9.35;;
78141;SDS011;67393;52.620;13.482;2023-11-21T03:02:55;17.70;;;9.07;;
78141;SDS011;67393;52.620;13.482;2023-11-21T03:05:23;15.10;;;8.57;;
78141;SDS011;67393;52.620;13.482;2023-11-21T03:07:49;19.60;;;8.82;;
78141;SDS011;67393;52.620;13.482;2023-11-21T03:10:16;16.40;;;7.72;;
78141;SDS011;67393;52.620;13.482;2023-11-21T03:12:42;20.05;;;7.90;;
78141;SDS011;67393;52.620;13.482;2023-11-21T03:15:09;13.45;;;6.45;;
78141;SDS011;67393;52.620;13.482;2023-11-21T03:17:35;18.23;;;8.45;;
78141;SDS011;67393;52.620;13.482;2023-11-21T03:20:02;16.98;;;8.25;;
78141;SDS011;67393;52.620;13.482;2023-11-21T03:22:29;18.75;;;8.57;;
78141;SDS011;67393;52.620;13.482;2023-11-21T03:24:56;19.83;;;8.18;;
78141;SDS011;67393;52.620;13.482;2023-11-21T03:27:22;20.50;;;9.23;;
78141;SDS011;67393;52.620;13.482;2023-11-21T03:29:48;21.33;;;7.97;;
78141;SDS011;67393;52.620;13.482;2023-11-21T03:32:15;15.60;;;7.57;;
78141;SDS011;67393;52.620;13.482;2023-11-21T03:34:54;17.52;;;8.95;;
78141;SDS011;67393;52.620;13.482;2023-11-21T03:37:22;17.52;;;7.30;;
78141;SDS011;67393;52.620;13.482;2023-11-21T03:39:49;16.85;;;7.50;;
78141;SDS011;67393;52.620;13.482;2023-11-21T03:42:15;14.30;;;6.28;;
78141;SDS011;67393;52.620;13.482;2023-11-21T03:44:42;16.25;;;7.68;;
78141;SDS011;67393;52.620;13.482;2023-11-21T03:47:08;15.75;;;6.65;;
78141;SDS011;67393;52.620;13.482;2023-11-21T03:49:35;15.95;;;7.13;;
78141;SDS011;67393;52.620;13.482;2023-11-21T03:52:01;13.35;;;7.25;;
78141;SDS011;67393;52.620;13.482;2023-11-21T03:54:28;16.20;;;7.22;;
78141;SDS011;67393;52.620;13.482;2023-11-21T03:56:54;14.73;;;6.28;;
78141;SDS011;67393;52.620;13.482;2023-11-21T03:59:20;17.13;;;7.05;;
78141;SDS011;67393;52.620;13.482;2023-11-21T04:01:47;16.50;;;6.53;;
78141;SDS011;67393;52.620;13.482;2023-11-21T04:04:13;16.23;;;7.47;;
78141;SDS011;67393;52.620;13.482;2023-11-21T04:06:40;16.45;;;7.53;;
78141;SDS011;67393;52.620;13.482;2023-11-21T04:09:07;16.25;;;6.93;;
78141;SDS011;67393;52.620;13.482;2023-11-21T04:11:34;14.73;;;6.90;;
78141;SDS011;67393;52.620;13.482;2023-11-21T04:14:00;13.25;;;5.80;;
78141;SDS011;67393;52.620;13.482;2023-11-21T04:16:26;18.45;;;7.72;;
78141;SDS011;67393;52.620;13.482;2023-11-21T04:18:53;13.88;;;5.95;;
78141;SDS011;67393;52.620;13.482;2023-11-21T04:21:19;14.27;;;6.75;;
78141;SDS011;67393;52.620;13.482;2023-11-21T04:23:46;13.35;;;5.95;;
78141;SDS011;67393;52.620;13.482;2023-11-21T04:26:12;14.05;;;6.35;;
78141;SDS011;67393;52.620;13.482;2023-11-21T04:28:38;16.70;;;6.28;;
78141;SDS011;67393;52.620;13.482;2023-11-21T04:31:05;13.63;;;6.50;;
78141;SDS011;67393;52.620;13.482;2023-11-21T04:33:31;15.27;;;7.25;;
78141;SDS011;67393;52.620;13.482;2023-11-21T04:35:58;17.15;;;7.05;;
78141;SDS011;67393;52.620;13.482;2023-11-21T04:38:24;11.95;;;5.20;;
78141;SDS011;67393;52.620;13.482;2023-11-21T04:40:51;14.73;;;6.53;;
78141;SDS011;67393;52.620;13.482;2023-11-21T04:43:17;15.63;;;6.40;;
78141;SDS011;67393;52.620;13.482;2023-11-21T04:45:44;13.27;;;6.80;;
78141;SDS011;67393;52.620;13.482;2023-11-21T04:48:10;11.43;;;6.20;;
78141;SDS011;67393;52.620;13.482;2023-11-21T04:50:37;14.52;;;5.93;;
78141;SDS011;67393;52.620;13.482;2023-11-21T04:53:03;13.57;;;5.65;;
78141;SDS011;67393;52.620;13.482;2023-11-21T04:55:29;12.43;;;5.53;;
78141;SDS011;67393;52.620;13.482;2023-11-21T04:57:56;14.70;;;5.97;;
78141;SDS011;67393;52.620;13.482;2023-11-21T05:00:22;12.20;;;5.72;;
78141;SDS011;67393;52.620;13.482;2023-11-21T05:02:49;12.70;;;6.30;;
78141;SDS011;67393;52.620;13.482;2023-11-21T05:05:16;14.60;;;6.18;;
78141;SDS011;67393;52.620;13.482;2023-11-21T05:07:42;13.88;;;6.18;;
78141;SDS011;67393;52.620;13.482;2023-11-21T05:10:09;12.73;;;5.45;;
78141;SDS011;67393;52.620;13.482;2023-11-21T05:12:35;16.23;;;6.18;;
78141;SDS011;67393;52.620;13.482;2023-11-21T05:15:02;13.73;;;6.82;;
78141;SDS011;67393;52.620;13.482;2023-11-21T05:17:30;15.45;;;6.53;;
78141;SDS011;67393;52.620;13.482;2023-11-21T05:19:57;16.92;;;7.07;;
78141;SDS011;67393;52.620;13.482;2023-11-21T05:22:23;14.02;;;6.50;;
78141;SDS011;67393;52.620;13.482;2023-11-21T05:24:50;15.77;;;6.18;;
78141;SDS011;67393;52.620;13.482;2023-11-21T05:27:16;18.88;;;6.13;;
78141;SDS011;67393;52.620;13.482;2023-11-21T05:29:43;16.13;;;6.60;;
78141;SDS011;67393;52.620;13.482;2023-11-21T05:32:09;16.20;;;6.53;;
78141;SDS011;67393;52.620;13.482;2023-11-21T05:34:35;13.25;;;6.43;;
78141;SDS011;67393;52.620;13.482;2023-11-21T05:37:02;17.05;;;7.03;;
78141;SDS011;67393;52.620;13.482;2023-11-21T05:39:28;16.55;;;7.45;;
78141;SDS011;67393;52.620;13.482;2023-11-21T05:41:55;14.32;;;7.28;;
78141;SDS011;67393;52.620;13.482;2023-11-21T05:44:21;17.38;;;6.75;;
78141;SDS011;67393;52.620;13.482;2023-11-21T05:46:48;14.90;;;6.80;;
78141;SDS011;67393;52.620;13.482;2023-11-21T05:49:14;16.95;;;7.32;;
78141;SDS011;67393;52.620;13.482;2023-11-21T05:51:41;18.65;;;7.93;;
78141;SDS011;67393;52.620;13.482;2023-11-21T05:54:07;20.80;;;7.28;;
78141;SDS011;67393;52.620;13.482;2023-11-21T05:56:34;18.60;;;6.85;;
78141;SDS011;67393;52.620;13.482;2023-11-21T05:59:00;14.65;;;6.72;;
78141;SDS011;67393;52.620;13.482;2023-11-21T06:01:27;17.50;;;7.03;;
78141;SDS011;67393;52.620;13.482;2023-11-21T06:03:53;14.45;;;6.07;;
78141;SDS011;67393;52.620;13.482;2023-11-21T06:06:21;14.82;;;6.72;;
78141;SDS011;67393;52.620;13.482;2023-11-21T06:08:48;12.20;;;5.60;;
78141;SDS011;67393;52.620;13.482;2023-11-21T06:11:15;12.80;;;5.40;;
78141;SDS011;67393;52.620;13.482;2023-11-21T06:13:41;12.43;;;5.60;;
78141;SDS011;67393;52.620;13.482;2023-11-21T06:16:08;14.68;;;5.68;;
78141;SDS011;67393;52.620;13.482;2023-11-21T06:18:34;13.82;;;6.15;;
78141;SDS011;67393;52.620;13.482;2023-11-21T06:21:01;12.82;;;6.15;;
78141;SDS011;67393;52.620;13.482;2023-11-21T06:23:27;13.85;;;5.88;;
78141;SDS011;67393;52.620;13.482;2023-11-21T06:25:53;11.07;;;5.05;;
78141;SDS011;67393;52.620;13.482;2023-11-21T06:28:20;11.65;;;5.30;;
78141;SDS011;67393;52.620;13.482;2023-11-21T06:30:46;16.75;;;5.45;;
78141;SDS011;67393;52.620;13.482;2023-11-21T06:33:13;11.95;;;4.82;;
78141;SDS011;67393;52.620;13.482;2023-11-21T06:35:39;11.93;;;4.93;;
78141;SDS011;67393;52.620;13.482;2023-11-21T06:38:06;12.05;;;5.40;;
78141;SDS011;67393;52.620;13.482;2023-11-21T06:40:32;12.05;;;5.50;;
78141;SDS011;67393;52.620;13.482;2023-11-21T06:42:59;10.23;;;4.95;;
78141;SDS011;67393;52.620;13.482;2023-11-21T06:45:25;11.85;;;5.88;;
78141;SDS011;67393;52.620;13.482;2023-11-21T06:47:52;10.02;;;5.63;;
78141;SDS011;67393;52.620;13.482;2023-11-21T06:50:18;13.98;;;4.22;;
78141;SDS011;67393;52.620;13.482;2023-11-21T06:52:45;9.63;;;5.25;;
78141;SDS011;67393;52.620;13.482;2023-11-21T06:55:11;8.80;;;4.75;;
78141;SDS011;67393;52.620;13.482;2023-11-21T06:57:38;10.55;;;4.97;;
78141;SDS011;67393;52.620;13.482;2023-11-21T07:00:05;8.73;;;4.10;;
78141;SDS011;67393;52.620;13.482;2023-11-21T07:02:32;11.90;;;4.85;;
78141;SDS011;67393;52.620;13.482;2023-11-21T07:04:58;10.15;;;4.97;;
78141;SDS011;67393;52.620;13.482;2023-11-21T07:07:25;11.50;;;5.45;;
78141;SDS011;67393;52.620;13.482;2023-11-21T07:09:51;9.10;;;3.95;;
78141;SDS011;67393;52.620;13.482;2023-11-21T07:12:17;8.95;;;4.07;;
78141;SDS011;67393;52.620;13.482;2023-11-21T07:14:44;8.07;;;4.25;;
78141;SDS011;67393;52.620;13.482;2023-11-21T07:17:11;8.23;;;4.38;;
78141;SDS011;67393;52.620;13.482;2023-11-21T07:19:38;11.52;;;4.85;;
78141;SDS011;67393;52.620;13.482;2023-11-21T07:22:04;9.85;;;4.65;;
78141;SDS011;67393;52.620;13.482;2023-11-21T07:24:31;8.85;;;4.90;;
78141;SDS011;67393;52.620;13.482;2023-11-21T07:26:58;11.18;;;4.90;;
78141;SDS011;67393;52.620;13.482;2023-11-21T07:29:24;8.98;;;4.75;;
78141;SDS011;67393;52.620;13.482;2023-11-21T07:31:51;10.23;;;4.57;;
78141;SDS011;67393;52.620;13.482;2023-11-21T07:34:19;8.73;;;4.60;;
78141;SDS011;67393;52.620;13.482;2023-11-21T07:36:46;12.25;;;5.28;;
78141;SDS011;67393;52.620;13.482;2023-11-21T07:39:13;10.57;;;5.50;;
78141;SDS011;67393;52.620;13.482;2023-11-21T07:41:40;9.20;;;4.88;;
78141;SDS011;67393;52.620;13.482;2023-11-21T07:44:06;9.27;;;4.70;;
78141;SDS011;67393;52.620;13.482;2023-11-21T07:46:33;10.65;;;4.68;;
78141;SDS011;67393;52.620;13.482;2023-11-21T07:48:59;7.57;;;4.65;;
78141;SDS011;67393;52.620;13.482;2023-11-21T07:51:26;13.27;;;5.00;;
78141;SDS011;67393;52.620;13.482;2023-11-21T07:53:52;9.43;;;4.72;;
78141;SDS011;67393;52.620;13.482;2023-11-21T07:56:18;10.55;;;4.72;;
78141;SDS011;67393;52.620;13.482;2023-11-21T07:58:45;9.18;;;4.85;;
78141;SDS011;67393;52.620;13.482;2023-11-21T08:01:11;8.60;;;4.28;;
78141;SDS011;67393;52.620;13.482;2023-11-21T08:03:38;9.75;;;4.03;;
78141;SDS011;67393;52.620;13.482;2023-11-21T08:06:05;7.47;;;3.90;;
78141;SDS011;67393;52.620;13.482;2023-11-21T08:08:31;8.77;;;3.90;;
78141;SDS011;67393;52.620;13.482;2023-11-21T08:10:58;12.98;;;5.53;;
78141;SDS011;67393;52.620;13.482;2023-11-21T08:13:25;10.32;;;4.80;;
78141;SDS011;67393;52.620;13.482;2023-11-21T08:15:56;9.52;;;4.68;;
78141;SDS011;67393;52.620;13.482;2023-11-21T08:18:24;10.77;;;4.18;;
78141;SDS011;67393;52.620;13.482;2023-11-21T08:20:50;8.75;;;4.72;;
78141;SDS011;67393;52.620;13.482;2023-11-21T08:23:17;8.88;;;4.65;;
78141;SDS011;67393;52.620;13.482;2023-11-21T08:25:43;17.55;;;7.40;;
78141;SDS011;67393;52.620;13.482;2023-11-21T08:28:10;11.20;;;5.35;;
78141;SDS011;67393;52.620;13.482;2023-11-21T08:30:37;9.00;;;4.55;;
78141;SDS011;67393;52.620;13.482;2023-11-21T08:33:04;15.27;;;5.22;;
78141;SDS011;67393;52.620;13.482;2023-11-21T08:35:31;14.05;;;5.50;;
78141;SDS011;67393;52.620;13.482;2023-11-21T08:37:57;13.43;;;4.45;;
78141;SDS011;67393;52.620;13.482;2023-11-21T08:40:24;18.55;;;5.47;;
78141;SDS011;67393;52.620;13.482;2023-11-21T08:42:50;16.42;;;5.80;;
78141;SDS011;67393;52.620;13.482;2023-11-21T08:45:17;11.00;;;5.40;;
78141;SDS011;67393;52.620;13.482;2023-11-21T08:47:44;20.23;;;6.32;;
78141;SDS011;67393;52.620;13.482;2023-11-21T08:50:11;11.95;;;4.53;;
78141;SDS011;67393;52.620;13.482;2023-11-21T08:52:38;15.45;;;6.18;;
78141;SDS011;67393;52.620;13.482;2023-11-21T08:55:05;17.63;;;6.43;;
78141;SDS011;67393;52.620;13.482;2023-11-21T08:57:32;16.00;;;5.28;;
78141;SDS011;67393;52.620;13.482;2023-11-21T08:59:59;14.57;;;5.45;;
78141;SDS011;67393;52.620;13.482;2023-11-21T09:02:25;16.92;;;6.05;;
78141;SDS011;67393;52.620;13.482;2023-11-21T09:04:52;17.95;;;6.05;;
78141;SDS011;67393;52.620;13.482;2023-11-21T09:07:19;22.15;;;7.63;;
78141;SDS011;67393;52.620;13.482;2023-11-21T09:09:46;24.08;;;7.60;;
78141;SDS011;67393;52.620;13.482;2023-11-21T09:12:13;24.33;;;6.25;;
78141;SDS011;67393;52.620;13.482;2023-11-21T09:14:40;23.05;;;6.57;;
78141;SDS011;67393;52.620;13.482;2023-11-21T09:17:06;18.83;;;5.60;;
78141;SDS011;67393;52.620;13.482;2023-11-21T09:19:35;16.95;;;5.13;;
78141;SDS011;67393;52.620;13.482;2023-11-21T09:22:02;11.82;;;4.85;;
78141;SDS011;67393;52.620;13.482;2023-11-21T09:24:29;17.48;;;5.22;;
78141;SDS011;67393;52.620;13.482;2023-11-21T09:26:55;15.05;;;5.10;;
78141;SDS011;67393;52.620;13.482;2023-11-21T09:29:21;15.37;;;4.57;;
78141;SDS011;67393;52.620;13.482;2023-11-21T09:31:48;11.90;;;4.60;;
78141;SDS011;67393;52.620;13.482;2023-11-21T09:34:14;17.55;;;5.32;;
78141;SDS011;67393;52.620;13.482;2023-11-21T09:36:41;11.73;;;4.65;;
78141;SDS011;67393;52.620;13.482;2023-11-21T09:39:07;11.52;;;4.03;;
78141;SDS011;67393;52.620;13.482;2023-11-21T09:41:40;12.10;;;4.30;;
78141;SDS011;67393;52.620;13.482;2023-11-21T09:44:12;9.00;;;3.60;;
78141;SDS011;67393;52.620;13.482;2023-11-21T09:46:40;9.68;;;3.85;;
78141;SDS011;67393;52.620;13.482;2023-11-21T09:49:11;8.60;;;3.60;;
78141;SDS011;67393;52.620;13.482;2023-11-21T09:51:39;12.27;;;3.55;;
78141;SDS011;67393;52.620;13.482;2023-11-21T09:54:10;9.15;;;3.65;;
78141;SDS011;67393;52.620;13.482;2023-11-21T09:56:37;12.27;;;3.60;;
78141;SDS011;67393;52.620;13.482;2023-11-21T09:59:05;6.90;;;2.83;;
78141;SDS011;67393;52.620;13.482;2023-11-21T10:01:32;8.95;;;3.45;;
78141;SDS011;67393;52.620;13.482;2023-11-21T10:04:02;10.38;;;3.40;;
78141;SDS011;67393;52.620;13.482;2023-11-21T10:06:28;6.28;;;3.40;;
78141;SDS011;67393;52.620;13.482;2023-11-21T10:08:57;5.63;;;3.15;;
78141;SDS011;67393;52.620;13.482;2023-11-21T10:11:25;6.57;;;3.50;;
78141;SDS011;67393;52.620;13.482;2023-11-21T10:13:54;5.97;;;3.10;;
78141;SDS011;67393;52.620;13.482;2023-11-21T10:16:21;6.10;;;3.10;;
78141;SDS011;67393;52.620;13.482;2023-11-21T10:18:51;7.70;;;3.88;;
78141;SDS011;67393;52.620;13.482;2023-11-21T10:23:45;6.63;;;2.95;;
78141;SDS011;67393;52.620;13.482;2023-11-21T10:26:13;6.28;;;3.10;;
78141;SDS011;67393;52.620;13.482;2023-11-21T10:29:00;6.10;;;3.20;;
78141;SDS011;67393;52.620;13.482;2023-11-21T10:31:29;7.55;;;3.65;;
78141;SDS011;67393;52.620;13.482;2023-11-21T10:36:42;5.93;;;2.95;;
78141;SDS011;67393;52.620;13.482;2023-11-21T10:39:09;7.32;;;3.92;;
78141;SDS011;67393;52.620;13.482;2023-11-21T10:41:39;6.22;;;3.42;;
78141;SDS011;67393;52.620;13.482;2023-11-21T10:44:05;6.63;;;3.75;;
78141;SDS011;67393;52.620;13.482;2023-11-21T10:46:34;4.90;;;2.85;;
78141;SDS011;67393;52.620;13.482;2023-11-21T10:49:01;4.97;;;3.10;;
78141;SDS011;67393;52.620;13.482;2023-11-21T10:51:27;8.30;;;3.65;;
78141;SDS011;67393;52.620;13.482;2023-11-21T10:53:54;5.45;;;3.30;;
78141;SDS011;67393;52.620;13.482;2023-11-21T10:56:22;5.68;;;2.92;;
78141;SDS011;67393;52.620;13.482;2023-11-21T10:58:49;9.80;;;3.40;;
78141;SDS011;67393;52.620;13.482;2023-11-21T11:01:17;7.25;;;3.15;;
78141;SDS011;67393;52.620;13.482;2023-11-21T11:03:45;7.47;;;3.22;;
78141;SDS011;67393;52.620;13.482;2023-11-21T11:06:13;5.85;;;3.15;;
78141;SDS011;67393;52.620;13.482;2023-11-21T11:08:40;6.70;;;3.03;;
78141;SDS011;67393;52.620;13.482;2023-11-21T11:11:07;6.03;;;3.05;;
78141;SDS011;67393;52.620;13.482;2023-11-21T11:13:34;4.78;;;2.53;;
78141;SDS011;67393;52.620;13.482;2023-11-21T11:16:01;4.82;;;2.78;;
78141;SDS011;67393;52.620;13.482;2023-11-21T11:18:28;5.78;;;2.83;;
78141;SDS011;67393;52.620;13.482;2023-11-21T11:21:11;4.20;;;2.63;;
78141;SDS011;67393;52.620;13.482;2023-11-21T11:26:42;5.45;;;2.97;;
78141;SDS011;67393;52.620;13.482;2023-11-21T11:32:08;4.65;;;2.80;;
78141;SDS011;67393;52.620;13.482;2023-11-21T11:34:54;5.38;;;2.75;;
78141;SDS011;67393;52.620;13.482;2023-11-21T11:37:28;7.57;;;2.95;;
78141;SDS011;67393;52.620;13.482;2023-11-21T11:39:55;5.85;;;2.85;;
78141;SDS011;67393;52.620;13.482;2023-11-21T11:42:22;7.30;;;3.20;;
78141;SDS011;67393;52.620;13.482;2023-11-21T11:44:49;5.25;;;2.80;;
78141;SDS011;67393;52.620;13.482;2023-11-21T11:47:35;6.55;;;2.83;;
78141;SDS011;67393;52.620;13.482;2023-11-21T11:52:32;4.75;;;2.35;;
78141;SDS011;67393;52.620;13.482;2023-11-21T11:55:15;5.75;;;3.33;;
78141;SDS011;67393;52.620;13.482;2023-11-21T11:57:42;5.25;;;3.00;;
78141;SDS011;67393;52.620;13.482;2023-11-21T12:00:09;4.60;;;2.70;;
78141;SDS011;67393;52.620;13.482;2023-11-21T12:02:41;5.93;;;2.75;;
78141;SDS011;67393;52.620;13.482;2023-11-21T12:05:11;4.57;;;3.10;;
78141;SDS011;67393;52.620;13.482;2023-11-21T12:07:54;3.80;;;2.63;;
78141;SDS011;67393;52.620;13.482;2023-11-21T12:10:22;6.07;;;3.28;;
78141;SDS011;67393;52.620;13.482;2023-11-21T12:15:27;4.93;;;2.53;;
78141;SDS011;67393;52.620;13.482;2023-11-21T12:17:53;5.75;;;2.45;;
78141;SDS011;67393;52.620;13.482;2023-11-21T12:20:20;4.68;;;2.70;;
78141;SDS011;67393;52.620;13.482;2023-11-21T12:22:55;6.43;;;2.80;;
78141;SDS011;67393;52.620;13.482;2023-11-21T12:25:23;5.68;;;3.22;;
78141;SDS011;67393;52.620;13.482;2023-11-21T12:27:51;4.95;;;3.05;;
78141;SDS011;67393;52.620;13.482;2023-11-21T12:30:19;6.18;;;3.50;;
78141;SDS011;67393;52.620;13.482;2023-11-21T12:32:51;6.88;;;3.17;;
78141;SDS011;67393;52.620;13.482;2023-11-21T12:35:20;6.47;;;4.20;;
78141;SDS011;67393;52.620;13.482;2023-11-21T12:37:48;8.60;;;3.72;;
78141;SDS011;67393;52.620;13.482;2023-11-21T12:40:15;8.43;;;3.80;;
78141;SDS011;67393;52.620;13.482;2023-11-21T12:42:42;7.13;;;3.58;;
78141;SDS011;67393;52.620;13.482;2023-11-21T12:45:10;7.30;;;4.18;;
78141;SDS011;67393;52.620;13.482;2023-11-21T12:47:37;8.00;;;3.63;;
78141;SDS011;67393;52.620;13.482;2023-11-21T12:50:04;7.70;;;3.70;;
78141;SDS011;67393;52.620;13.482;2023-11-21T12:52:30;7.68;;;4.03;;
78141;SDS011;67393;52.620;13.482;2023-11-21T12:54:58;8.15;;;3.05;;
78141;SDS011;67393;52.620;13.482;2023-11-21T12:57:27;7.45;;;4.03;;
78141;SDS011;67393;52.620;13.482;2023-11-21T12:59:57;6.57;;;3.85;;
78141;SDS011;67393;52.620;13.482;2023-11-21T13:02:26;6.30;;;3.35;;
78141;SDS011;67393;52.620;13.482;2023-11-21T13:04:53;7.07;;;3.58;;
78141;SDS011;67393;52.620;13.482;2023-11-21T13:07:19;10.15;;;4.55;;
78141;SDS011;67393;52.620;13.482;2023-11-21T13:09:46;7.72;;;3.70;;
78141;SDS011;67393;52.620;13.482;2023-11-21T13:12:12;8.27;;;4.35;;
78141;SDS011;67393;52.620;13.482;2023-11-21T13:14:39;7.25;;;3.70;;
78141;SDS011;67393;52.620;13.482;2023-11-21T13:17:06;10.68;;;5.18;;
78141;SDS011;67393;52.620;13.482;2023-11-21T13:19:32;11.90;;;5.55;;
78141;SDS011;67393;52.620;13.482;2023-11-21T13:21:59;10.57;;;5.05;;
78141;SDS011;67393;52.620;13.482;2023-11-21T13:24:25;13.27;;;4.47;;
78141;SDS011;67393;52.620;13.482;2023-11-21T13:26:52;12.90;;;5.35;;
78141;SDS011;67393;52.620;13.482;2023-11-21T13:29:18;9.60;;;5.20;;
78141;SDS011;67393;52.620;13.482;2023-11-21T13:31:44;9.70;;;4.85;;
78141;SDS011;67393;52.620;13.482;2023-11-21T13:34:11;10.18;;;5.03;;
78141;SDS011;67393;52.620;13.482;2023-11-21T13:36:38;8.73;;;4.60;;
78141;SDS011;67393;52.620;13.482;2023-11-21T13:39:05;12.77;;;6.03;;
78141;SDS011;67393;52.620;13.482;2023-11-21T13:41:31;13.77;;;5.00;;
78141;SDS011;67393;52.620;13.482;2023-11-21T13:43:58;12.85;;;5.57;;
78141;SDS011;67393;52.620;13.482;2023-11-21T13:46:24;13.00;;;5.97;;
78141;SDS011;67393;52.620;13.482;2023-11-21T13:48:51;13.48;;;6.20;;
78141;SDS011;67393;52.620;13.482;2023-11-21T13:51:17;12.32;;;5.75;;
78141;SDS011;67393;52.620;13.482;2023-11-21T13:53:44;16.27;;;8.13;;
78141;SDS011;67393;52.620;13.482;2023-11-21T13:56:11;19.65;;;8.27;;
78141;SDS011;67393;52.620;13.482;2023-11-21T13:58:38;20.10;;;9.48;;
78141;SDS011;67393;52.620;13.482;2023-11-21T14:01:04;24.35;;;10.80;;
78141;SDS011;67393;52.620;13.482;2023-11-21T14:03:31;21.00;;;10.50;;
78141;SDS011;67393;52.620;13.482;2023-11-21T14:05:58;24.13;;;11.10;;
78141;SDS011;67393;52.620;13.482;2023-11-21T14:08:24;22.42;;;10.68;;
78141;SDS011;67393;52.620;13.482;2023-11-21T14:10:51;27.95;;;11.43;;
78141;SDS011;67393;52.620;13.482;2023-11-21T14:13:17;24.08;;;10.52;;
78141;SDS011;67393;52.620;13.482;2023-11-21T14:15:45;22.52;;;11.00;;
78141;SDS011;67393;52.620;13.482;2023-11-21T14:18:11;23.40;;;11.15;;
78141;SDS011;67393;52.620;13.482;2023-11-21T14:20:38;28.70;;;11.73;;
78141;SDS011;67393;52.620;13.482;2023-11-21T14:23:04;28.20;;;13.50;;
78141;SDS011;67393;52.620;13.482;2023-11-21T14:25:35;28.85;;;12.40;;
78141;SDS011;67393;52.620;13.482;2023-11-21T14:28:05;21.85;;;10.38;;
78141;SDS011;67393;52.620;13.482;2023-11-21T14:30:32;23.80;;;12.20;;
78141;SDS011;67393;52.620;13.482;2023-11-21T14:32:59;34.60;;;11.65;;
78141;SDS011;67393;52.620;13.482;2023-11-21T14:35:26;29.20;;;12.18;;
78141;SDS011;67393;52.620;13.482;2023-11-21T14:37:52;32.92;;;12.90;;
78141;SDS011;67393;52.620;13.482;2023-11-21T14:40:19;27.95;;;12.13;;